Boyes, Montana
Current Conditions -  °F | °C
As of 7:35 PM on Wednesday 22 Oct 2014 (Local Time) from KW43 Reporting Station
Clear Clear  
Wind Chill:   Ceiling: Unl
Heat Index:   Visibility: 10mi
Dew Point: -2°   Wind: 7mph
Humidity: 53%   Direction: 150°SSE
Pressure: 30.02"   Gusts: NA
Location:  45.27°N, 105.03°W
Report Text: KW43 230135Z AUTO 15006KT 10SM CLR 07/M02 A3002 RMK AO2
Loading
Personal Weather Stations






























Interactive Weather Map
Tropical Storm Tracking
New forecast layout! Learn more

10-Day Weather Forecast

Advertisements
Track Severe Weather on mobile